Time;durP1;ratioP1;P1;durP2;ratioP2;P2;SDS_P1;SDS_P2;PMS_P1;PMS_P2;Temp;Humidity;BMP_temperature;BMP_pressure;BME280_temperature;BME280_humidity;BME280_pressure;Samples;Min_cycle;Max_cycle;Signal;HPM_P1;HPM_P2
2023/01/28 00:00:09;;;;;;;5.93;2.00;;;1.40;99.90;;;;;;4964301;28;20427;-92
2023/01/28 00:02:35;;;;;;;5.30;1.87;;;1.50;97.80;;;;;;4967474;28;20414;-94
2023/01/28 00:05:01;;;;;;;3.77;1.63;;;1.40;1.00;;;;;;4968827;28;20419;-87
2023/01/28 00:07:27;;;;;;;2.50;1.50;;;1.40;1.00;;;;;;4986595;28;20417;-92
2023/01/28 00:09:52;;;;;;;3.27;2.37;;;1.60;1.00;;;;;;4968852;28;20451;-93
2023/01/28 00:12:19;;;;;;;3.53;1.10;;;1.40;1.00;;;;;;4969601;28;20201;-94
2023/01/28 00:14:46;;;;;;;2.47;1.37;;;1.60;99.90;;;;;;4953550;28;20186;-95
2023/01/28 00:17:15;;;;;;;2.20;1.60;;;1.40;99.90;;;;;;4953659;28;20436;-94
2023/01/28 00:19:40;;;;;;;6.93;2.87;;;1.40;99.90;;;;;;4967687;28;20432;-91
2023/01/28 00:22:08;;;;;;;4.90;1.50;;;1.40;97.10;;;;;;4965322;28;20418;-94
2023/01/28 00:24:33;;;;;;;2.40;2.13;;;1.50;43.90;;;;;;4965454;28;20188;-95
2023/01/28 00:26:59;;;;;;;3.67;2.10;;;1.50;99.90;;;;;;4961531;28;20768;-93
2023/01/28 00:29:24;;;;;;;3.50;2.13;;;1.60;1.00;;;;;;4960832;28;20180;-89
2023/01/28 00:31:50;;;;;;;4.77;1.50;;;1.40;1.00;;;;;;4960736;28;20172;-92
2023/01/28 00:34:15;;;;;;;2.77;1.73;;;1.50;1.00;;;;;;4944410;28;20237;-95
2023/01/28 00:36:42;;;;;;;2.30;1.43;;;1.70;31.80;;;;;;4962068;28;20263;-94
2023/01/28 00:39:13;;;;;;;3.30;1.30;;;1.60;49.00;;;;;;4961470;28;20433;-93
2023/01/28 00:41:42;;;;;;;3.20;0.70;;;1.40;1.00;;;;;;4944733;28;20420;-94
2023/01/28 00:44:10;;;;;;;0.97;0.87;;;1.40;99.90;;;;;;4960883;28;20422;-93
2023/01/28 00:46:36;;;;;;;2.03;1.33;;;1.50;99.90;;;;;;4964172;28;20502;-93
2023/01/28 00:49:01;;;;;;;4.60;1.10;;;1.50;1.00;;;;;;4977889;28;20439;-96
2023/01/28 00:51:27;;;;;;;3.17;1.30;;;1.50;20.40;;;;;;4971365;28;20176;-92
2023/01/28 00:53:52;;;;;;;2.83;1.53;;;1.40;1.00;;;;;;4961386;28;20224;-92
2023/01/28 00:56:18;;;;;;;3.60;1.53;;;1.40;1.00;;;;;;4969720;28;20161;-84
2023/01/28 00:58:44;;;;;;;1.63;1.30;;;1.50;99.90;;;;;;4982686;28;20203;-95
2023/01/28 01:01:15;;;;;;;3.07;1.90;;;1.50;1.00;;;;;;4999714;28;20192;-93
2023/01/28 01:03:41;;;;;;;1.60;1.40;;;1.50;1.00;;;;;;4983274;28;20445;-94
2023/01/28 01:06:11;;;;;;;3.73;1.17;;;1.60;99.90;;;;;;5050269;23;20501;-84
2023/01/28 01:08:41;;;;;;;4.73;1.33;;;1.50;81.80;;;;;;4999056;28;20220;-88
2023/01/28 01:11:12;;;;;;;1.97;0.93;;;1.50;82.30;;;;;;4982688;28;20446;-94
2023/01/28 01:16:15;;;;;;;2.20;1.33;;;1.40;1.00;;;;;;5312993;23;20462;-86
2023/01/28 01:18:41;;;;;;;2.40;1.30;;;1.20;34.00;;;;;;4974085;28;20426;-86
2023/01/28 01:21:10;;;;;;;2.57;0.83;;;1.40;99.90;;;;;;5003538;23;20845;-86
2023/01/28 01:31:59;;;;;;;4.03;2.47;;;1.60;99.90;;;;;;4996101;28;20387;-86
2023/01/28 01:34:25;;;;;;;5.70;2.60;;;1.70;1.00;;;;;;4980847;28;20431;-84
2023/01/28 01:36:52;;;;;;;3.13;1.70;;;1.50;1.00;;;;;;5003589;23;22478;-85
2023/01/28 01:39:43;;;;;;;3.30;2.53;;;1.40;1.00;;;;;;5021714;23;20239;-84
2023/01/28 01:42:12;;;;;;;1.90;0.87;;;2.00;1.00;;;;;;4996457;28;20503;-90
2023/01/28 01:45:11;;;;;;;2.00;1.13;;;1.40;99.90;;;;;;4979402;28;20474;-94
2023/01/28 01:47:46;;;;;;;2.57;1.80;;;1.50;99.90;;;;;;4971544;28;20455;-93
2023/01/28 01:50:16;;;;;;;2.83;1.83;;;1.50;1.00;;;;;;4979170;28;20435;-93
2023/01/28 01:52:43;;;;;;;1.30;1.20;;;1.50;88.30;;;;;;4964043;28;20531;-89
2023/01/28 01:55:13;;;;;;;3.23;1.00;;;1.40;1.00;;;;;;4963564;28;20415;-91
2023/01/28 01:57:41;;;;;;;2.30;0.80;;;1.40;99.90;;;;;;4982530;28;20863;-92
2023/01/28 02:00:07;;;;;;;2.50;1.03;;;1.50;99.90;;;;;;4962540;28;20429;-93
2023/01/28 02:02:52;;;;;;;3.40;1.20;;;1.50;99.90;;;;;;4961420;28;20438;-94
2023/01/28 02:05:21;;;;;;;3.50;2.30;;;1.50;99.90;;;;;;4961722;28;20431;-89
2023/01/28 02:07:54;;;;;;;1.80;0.80;;;1.40;1.00;;;;;;4963866;28;20475;-92
2023/01/28 02:10:20;;;;;;;3.60;1.00;;;1.30;1.00;;;;;;4978920;28;20554;-93
2023/01/28 02:12:55;;;;;;;2.00;0.63;;;1.40;1.00;;;;;;4946794;28;20834;-94
2023/01/28 02:15:25;;;;;;;4.97;0.83;;;1.40;1.00;;;;;;4962437;28;20451;-92
2023/01/28 02:17:51;;;;;;;3.13;1.20;;;1.30;1.00;;;;;;4955666;29;20416;-94
2023/01/28 02:20:54;;;;;;;1.67;1.20;;;1.40;1.00;;;;;;4965814;28;20430;-95
2023/01/28 02:23:54;;;;;;;1.80;1.00;;;1.40;1.00;;;;;;4979909;28;20475;-95
2023/01/28 02:26:43;;;;;;;3.23;1.47;;;1.40;1.00;;;;;;4963832;28;20455;-94
2023/01/28 02:29:29;;;;;;;1.30;0.70;;;1.40;54.60;;;;;;4963997;28;20425;-95
2023/01/28 02:32:00;;;;;;;1.93;1.07;;;1.30;48.60;;;;;;4977974;28;20431;-93
2023/01/28 02:34:53;;;;;;;1.50;0.80;;;1.30;99.90;;;;;;4947308;29;20523;-94
2023/01/28 02:37:32;;;;;;;4.90;1.33;;;1.30;99.90;;;;;;4944999;29;20425;-95
2023/01/28 02:40:04;;;;;;;2.53;2.00;;;1.20;39.70;;;;;;4962666;29;20438;-95
2023/01/28 02:42:33;;;;;;;4.53;1.27;;;1.20;1.00;;;;;;4962978;29;20424;-95
2023/01/28 02:44:59;;;;;;;2.03;1.33;;;1.20;1.00;;;;;;4966187;29;20428;-92
2023/01/28 02:50:16;;;;;;;3.43;1.33;;;1.20;1.00;;;;;;4970233;29;20176;-90
2023/01/28 02:53:43;;;;;;;6.73;1.53;;;1.10;9.20;;;;;;4999644;23;20488;-95
2023/01/28 02:56:33;;;;;;;2.13;1.93;;;1.60;99.90;;;;;;4962722;28;20836;-92
2023/01/28 02:59:30;;;;;;;4.63;1.80;;;1.00;99.90;;;;;;5190552;23;20477;-84
2023/01/28 03:02:07;;;;;;;2.53;1.07;;;0.40;99.90;;;;;;5005230;28;20929;-91
2023/01/28 03:04:45;;;;;;;5.33;1.63;;;0.60;99.90;;;;;;5017270;28;20433;-87
2023/01/28 03:07:12;;;;;;;1.40;1.07;;;0.80;1.00;;;;;;5025315;23;20477;-84
2023/01/28 03:09:50;;;;;;;1.97;1.23;;;0.90;99.90;;;;;;5073944;23;20423;-84
2023/01/28 03:38:16;;;;;;;2.63;0.90;;;1.00;1.00;;;;;;5021666;23;20491;-83
2023/01/28 03:41:05;;;;;;;2.43;1.00;;;1.50;1.00;;;;;;4980957;23;20475;-84
2023/01/28 03:43:54;;;;;;;2.70;1.13;;;1.10;1.00;;;;;;4994437;23;20527;-84
2023/01/28 03:46:20;;;;;;;1.63;1.17;;;1.20;1.00;;;;;;5010477;23;20467;-84
2023/01/28 03:48:46;;;;;;;1.10;0.60;;;0.80;46.40;;;;;;5001270;28;20444;-84
2023/01/28 03:53:47;;;;;;;2.50;1.33;;;0.90;99.90;;;;;;5013029;23;20226;-84
2023/01/28 03:56:17;;;;;;;0.60;0.57;;;0.70;99.90;;;;;;4992819;28;20427;-84
2023/01/28 03:58:51;;;;;;;1.57;0.97;;;0.90;99.90;;;;;;4986900;23;20230;-84
2023/01/28 04:01:23;;;;;;;2.70;1.00;;;0.90;99.90;;;;;;5407709;23;20495;-83
2023/01/28 04:03:48;;;;;;;1.07;0.73;;;2.70;99.90;;;;;;4998956;28;20428;-84
2023/01/28 04:06:14;;;;;;;1.77;1.03;;;0.90;99.90;;;;;;4984048;28;20453;-84
2023/01/28 04:08:52;;;;;;;2.47;1.47;;;0.80;99.90;;;;;;4998440;23;20208;-84
2023/01/28 04:11:20;;;;;;;2.03;1.30;;;0.80;99.90;;;;;;4972623;23;20254;-84
2023/01/28 04:13:47;;;;;;;3.90;1.50;;;0.90;99.90;;;;;;4983804;28;21072;-93
2023/01/28 04:16:15;;;;;;;2.33;1.10;;;0.90;72.80;;;;;;4971954;28;20973;-86
2023/01/28 04:18:40;;;;;;;2.30;0.90;;;1.00;99.90;;;;;;4966208;28;20471;-93
2023/01/28 04:21:06;;;;;;;1.30;1.20;;;0.80;99.90;;;;;;4969490;28;20416;-86
2023/01/28 04:23:39;;;;;;;1.53;1.30;;;0.70;99.90;;;;;;4973816;29;20432;-90
2023/01/28 04:26:05;;;;;;;1.80;1.10;;;0.70;99.90;;;;;;4974667;29;20154;-86
2023/01/28 04:28:30;;;;;;;1.90;1.80;;;0.70;99.90;;;;;;4990331;28;20425;-91
2023/01/28 04:33:23;;;;;;;1.60;1.00;;;0.70;99.90;;;;;;5013141;28;20247;-84
2023/01/28 04:35:49;;;;;;;1.77;1.00;;;0.70;99.90;;;;;;5020008;23;20486;-84
2023/01/28 04:38:18;;;;;;;1.63;1.43;;;0.60;99.90;;;;;;5009788;23;20226;-84
2023/01/28 04:43:25;;;;;;;1.03;1.00;;;0.60;99.90;;;;;;5020616;23;20489;-83
2023/01/28 04:45:51;;;;;;;1.27;1.03;;;0.20;99.90;;;;;;4979663;28;20446;-84
2023/01/28 04:50:52;;;;;;;2.20;1.07;;;0.30;99.90;;;;;;5122087;23;20226;-84
2023/01/28 04:53:18;;;;;;;1.40;1.23;;;-0.70;99.90;;;;;;4989668;23;20527;-84
2023/01/28 04:55:58;;;;;;;3.30;1.00;;;0.40;99.90;;;;;;4987535;23;20476;-84
2023/01/28 04:58:24;;;;;;;1.23;1.13;;;0.10;99.90;;;;;;4975337;28;20404;-84
2023/01/28 05:01:02;;;;;;;3.07;1.40;;;0.60;99.90;;;;;;4988595;23;20491;-84
2023/01/28 05:06:03;;;;;;;2.87;1.20;;;0.30;99.90;;;;;;5141761;23;20457;-85
2023/01/28 05:08:33;;;;;;;3.33;3.00;;;0.30;99.90;;;;;;4996464;28;20384;-84
2023/01/28 05:11:01;;;;;;;2.57;1.30;;;0.40;99.90;;;;;;5064648;23;20857;-89
2023/01/28 05:13:27;;;;;;;1.57;1.27;;;-0.20;99.90;;;;;;4975167;28;20512;-88
2023/01/28 05:15:55;;;;;;;1.50;1.30;;;0.00;99.90;;;;;;4987452;23;20463;-85
2023/01/28 05:18:21;;;;;;;1.30;0.90;;;0.00;99.90;;;;;;4995868;28;20176;-85
2023/01/28 05:20:47;;;;;;;0.93;0.83;;;-0.60;99.90;;;;;;4979730;28;20473;-85
2023/01/28 05:23:18;;;;;;;3.73;1.70;;;0.00;99.90;;;;;;5279570;23;20241;-85
2023/01/28 05:25:47;;;;;;;2.10;1.40;;;0.10;99.90;;;;;;5001551;23;20242;-87
2023/01/28 05:28:12;;;;;;;1.70;1.27;;;-0.10;99.90;;;;;;4981660;28;20430;-85
2023/01/28 05:30:44;;;;;;;2.47;1.77;;;0.00;99.90;;;;;;5334942;23;20481;-84
2023/01/28 05:33:09;;;;;;;1.53;0.87;;;-0.20;99.90;;;;;;5217718;23;20272;-84
2023/01/28 05:35:35;;;;;;;2.40;1.70;;;0.00;99.90;;;;;;4998125;28;20475;-87
2023/01/28 05:38:02;;;;;;;1.70;1.23;;;-0.20;99.90;;;;;;5144954;23;20225;-84
2023/01/28 05:40:27;;;;;;;3.93;1.80;;;-0.30;99.90;;;;;;5009278;28;20167;-84
2023/01/28 05:42:56;;;;;;;2.10;1.20;;;-0.50;99.90;;;;;;5001259;23;20514;-84
2023/01/28 05:45:22;;;;;;;2.20;1.70;;;-0.40;99.90;;;;;;4974441;28;20622;-91
2023/01/28 05:47:48;;;;;;;2.50;1.97;;;-0.20;99.90;;;;;;5024276;23;20766;-86
2023/01/28 05:50:19;;;;;;;1.97;1.10;;;-0.30;99.90;;;;;;5008970;23;20224;-93
2023/01/28 05:52:44;;;;;;;2.40;1.07;;;-0.40;99.90;;;;;;5014378;28;20455;-88
2023/01/28 05:55:13;;;;;;;6.13;2.37;;;-0.50;99.90;;;;;;5043248;23;20547;-89
2023/01/28 05:57:39;;;;;;;1.23;1.13;;;0.00;99.90;;;;;;4977043;28;20182;-86
2023/01/28 06:00:05;;;;;;;3.63;1.07;;;-0.70;99.90;;;;;;5004649;23;20538;-88
2023/01/28 06:02:34;;;;;;;1.10;0.90;;;-0.40;99.90;;;;;;4994656;28;20209;-85
2023/01/28 06:05:01;;;;;;;2.70;1.30;;;-1.30;99.90;;;;;;5413795;23;20501;-85
2023/01/28 06:07:28;;;;;;;2.20;2.00;;;-0.60;99.90;;;;;;5014874;28;20403;-89
2023/01/28 06:10:04;;;;;;;1.70;1.60;;;0.70;99.90;;;;;;5039557;23;20495;-85
2023/01/28 06:12:29;;;;;;;3.10;1.90;;;-0.50;99.90;;;;;;5023602;23;20462;-85
2023/01/28 06:14:55;;;;;;;2.60;1.77;;;-0.60;99.90;;;;;;5012438;28;20471;-85
2023/01/28 06:17:23;;;;;;;1.90;1.30;;;-0.50;99.90;;;;;;5107669;23;20224;-85
2023/01/28 06:20:03;;;;;;;1.60;1.30;;;-0.60;99.90;;;;;;5051102;23;20734;-84
2023/01/28 06:22:29;;;;;;;1.60;1.37;;;-0.50;99.90;;;;;;5158006;23;20490;-85
2023/01/28 06:24:54;;;;;;;1.97;0.97;;;-1.00;99.90;;;;;;5013662;28;20438;-92
2023/01/28 06:27:20;;;;;;;1.47;1.10;;;-0.70;99.90;;;;;;5005589;28;20207;-94
2023/01/28 06:29:45;;;;;;;1.30;1.20;;;-0.70;99.90;;;;;;5011037;28;20187;-85
2023/01/28 06:32:11;;;;;;;1.83;1.30;;;-0.50;99.90;;;;;;5092602;23;20216;-83
2023/01/28 06:34:36;;;;;;;4.53;1.90;;;-0.50;99.90;;;;;;5008563;23;20218;-83
2023/01/28 06:37:03;;;;;;;2.73;1.80;;;-0.40;99.90;;;;;;5113139;23;20268;-85
2023/01/28 06:39:30;;;;;;;1.00;1.00;;;-0.60;99.90;;;;;;4991171;28;20186;-91
2023/01/28 06:41:56;;;;;;;1.90;1.13;;;-0.40;99.90;;;;;;4962706;28;20459;-94
2023/01/28 06:44:22;;;;;;;1.27;1.17;;;-0.40;99.90;;;;;;4961912;28;20435;-93
2023/01/28 06:46:48;;;;;;;1.90;1.47;;;-0.50;99.90;;;;;;4979103;28;20181;-95
2023/01/28 06:49:14;;;;;;;1.30;1.10;;;-0.50;99.90;;;;;;4964686;28;20868;-94
2023/01/28 06:51:39;;;;;;;4.40;1.93;;;-0.60;99.90;;;;;;4980424;28;20450;-85
2023/01/28 06:54:16;;;;;;;2.90;1.70;;;-0.70;99.90;;;;;;5076664;23;20224;-84
2023/01/28 06:56:43;;;;;;;1.50;1.27;;;-0.60;99.90;;;;;;4985633;28;20524;-90
2023/01/28 06:59:08;;;;;;;2.73;2.07;;;-0.80;99.90;;;;;;4979144;28;20437;-93
2023/01/28 07:01:33;;;;;;;2.33;1.50;;;-0.90;99.90;;;;;;4979574;28;20622;-93
2023/01/28 07:03:59;;;;;;;2.47;2.13;;;-1.00;99.90;;;;;;4961837;28;20621;-93
2023/01/28 07:06:24;;;;;;;3.00;2.00;;;-1.00;99.90;;;;;;4963430;28;20180;-95
2023/01/28 07:08:50;;;;;;;1.47;1.17;;;-1.10;99.90;;;;;;4985950;28;20204;-90
2023/01/28 07:11:15;;;;;;;1.77;1.57;;;-1.00;99.90;;;;;;4973142;28;20183;-93
2023/01/28 07:13:42;;;;;;;4.30;1.30;;;-1.10;99.90;;;;;;4972415;28;20247;-88
2023/01/28 07:16:08;;;;;;;2.50;1.53;;;-1.00;99.90;;;;;;4981852;28;20183;-92
2023/01/28 07:18:33;;;;;;;1.90;1.20;;;-1.00;99.90;;;;;;4966407;28;20850;-94
2023/01/28 07:21:01;;;;;;;2.60;1.30;;;-1.00;99.90;;;;;;4983855;28;20546;-88
2023/01/28 07:23:27;;;;;;;1.17;1.07;;;-1.00;99.90;;;;;;4975427;28;20178;-94
2023/01/28 07:25:52;;;;;;;1.80;1.20;;;-1.00;99.90;;;;;;4970630;28;20956;-95
2023/01/28 07:28:27;;;;;;;2.97;1.60;;;-1.00;99.90;;;;;;4980563;28;20170;-90
2023/01/28 07:30:53;;;;;;;1.37;0.80;;;-1.00;99.90;;;;;;4975934;28;20168;-87
2023/01/28 07:33:18;;;;;;;3.07;1.67;;;-1.00;99.90;;;;;;4975788;28;20486;-87
2023/01/28 07:35:44;;;;;;;14.43;2.83;;;-0.90;99.90;;;;;;4970529;28;20176;-94
2023/01/28 07:38:10;;;;;;;1.37;1.00;;;-0.90;99.90;;;;;;4975374;28;20183;-91
2023/01/28 07:43:13;;;;;;;2.83;1.53;;;-0.60;99.90;;;;;;5009579;28;20490;-87
2023/01/28 07:45:39;;;;;;;2.07;1.77;;;-0.70;99.90;;;;;;4997608;28;20446;-86
2023/01/28 07:48:10;;;;;;;2.60;2.00;;;-0.70;99.90;;;;;;4993214;23;20494;-85
2023/01/28 07:50:36;;;;;;;3.10;1.80;;;-0.70;99.90;;;;;;4997460;28;20244;-84
2023/01/28 07:53:04;;;;;;;4.97;2.50;;;-0.70;99.90;;;;;;4992607;28;20470;-84
2023/01/28 07:55:30;;;;;;;5.43;2.10;;;-0.80;99.90;;;;;;4984680;28;20574;-88
2023/01/28 07:57:57;;;;;;;4.60;1.87;;;-0.80;99.90;;;;;;4979713;28;20539;-95
2023/01/28 08:00:25;;;;;;;0.93;0.63;;;-0.70;99.90;;;;;;4966189;23;20484;-94
2023/01/28 08:02:58;;;;;;;3.00;1.87;;;-0.50;99.90;;;;;;4975496;28;20441;-87
2023/01/28 08:05:25;;;;;;;1.40;1.30;;;-0.80;99.90;;;;;;4952638;29;20830;-94
2023/01/28 08:07:51;;;;;;;2.70;1.40;;;-0.80;99.90;;;;;;4965978;29;20432;-93
2023/01/28 08:10:17;;;;;;;3.13;2.37;;;-0.80;99.90;;;;;;4948079;29;20440;-94
2023/01/28 08:12:59;;;;;;;2.10;1.50;;;-0.90;99.90;;;;;;4966812;29;20211;-85
2023/01/28 08:15:29;;;;;;;2.70;1.70;;;-0.60;99.90;;;;;;4974298;29;20452;-85
2023/01/28 08:17:56;;;;;;;1.23;1.13;;;-0.30;99.90;;;;;;4985420;23;20555;-95
2023/01/28 08:20:22;;;;;;;1.70;1.47;;;-0.60;99.90;;;;;;4962339;28;20522;-93
2023/01/28 08:22:47;;;;;;;3.03;1.90;;;-0.40;99.90;;;;;;4961759;28;20427;-92
2023/01/28 08:25:13;;;;;;;2.80;2.27;;;-0.50;99.90;;;;;;4978876;28;20508;-93
2023/01/28 08:27:38;;;;;;;2.93;1.90;;;-0.50;99.90;;;;;;4978481;28;20186;-95
2023/01/28 08:30:05;;;;;;;3.17;1.70;;;-0.60;99.90;;;;;;4978182;28;20215;-93
2023/01/28 08:32:30;;;;;;;5.00;3.00;;;-0.40;99.90;;;;;;4979728;28;20299;-94
2023/01/28 08:34:56;;;;;;;4.07;1.80;;;-0.40;99.90;;;;;;4978129;28;20479;-94
2023/01/28 08:37:24;;;;;;;4.57;3.60;;;0.00;99.90;;;;;;4970146;28;20240;-87
2023/01/28 08:39:50;;;;;;;7.80;4.03;;;0.90;99.90;;;;;;4983841;28;20230;-94
2023/01/28 08:42:15;;;;;;;4.13;3.70;;;0.40;99.90;;;;;;4983517;28;20431;-95
2023/01/28 08:44:41;;;;;;;6.23;3.50;;;1.00;99.90;;;;;;4987718;28;20162;-84
2023/01/28 08:47:09;;;;;;;7.60;4.10;;;1.20;1.00;;;;;;4979392;28;20206;-84
2023/01/28 08:52:03;;;;;;;5.97;2.60;;;2.50;99.90;;;;;;5071821;23;20504;-84
2023/01/28 08:54:28;;;;;;;6.17;3.07;;;3.00;1.00;;;;;;4969674;23;20567;-93
2023/01/28 08:56:54;;;;;;;4.53;2.97;;;2.90;1.00;;;;;;4965137;28;20186;-89
2023/01/28 08:59:19;;;;;;;4.20;2.13;;;4.30;99.90;;;;;;4951834;29;20205;-85
2023/01/28 09:01:45;;;;;;;2.37;1.80;;;5.20;99.90;;;;;;4965875;29;20184;-96
2023/01/28 09:04:10;;;;;;;3.73;3.33;;;5.00;99.90;;;;;;4962908;29;20179;-90
2023/01/28 09:06:38;;;;;;;2.97;2.30;;;5.40;1.00;;;;;;4961685;28;20177;-83
2023/01/28 09:09:04;;;;;;;3.57;2.40;;;5.90;1.00;;;;;;4941596;29;20241;-85
2023/01/28 09:11:29;;;;;;;3.33;3.03;;;6.60;1.00;;;;;;4956269;29;20835;-90
2023/01/28 09:13:56;;;;;;;5.23;3.80;;;6.90;1.00;;;;;;4957810;29;20220;-95
2023/01/28 09:16:22;;;;;;;4.50;3.03;;;6.70;1.00;;;;;;4956996;29;20320;-89
2023/01/28 09:18:48;;;;;;;3.50;2.67;;;6.30;1.00;;;;;;4955422;29;20438;-93
2023/01/28 09:21:13;;;;;;;6.43;4.23;;;4.70;1.00;;;;;;4964334;29;20186;-84
2023/01/28 09:23:39;;;;;;;6.60;3.10;;;3.90;99.90;;;;;;4946228;29;20206;-92
2023/01/28 09:26:05;;;;;;;7.10;4.30;;;3.70;1.00;;;;;;4946142;29;20188;-83
2023/01/28 09:28:32;;;;;;;4.10;3.70;;;4.10;1.00;;;;;;4959065;29;20540;-83
2023/01/28 09:31:08;;;;;;;8.80;3.67;;;4.60;99.90;;;;;;4965501;29;20475;-84
2023/01/28 09:33:35;;;;;;;3.80;3.43;;;4.20;99.90;;;;;;4961658;29;20467;-83
2023/01/28 09:36:06;;;;;;;6.60;5.03;;;3.40;1.00;;;;;;4963431;29;20420;-83
2023/01/28 09:38:33;;;;;;;4.13;3.73;;;2.60;1.00;;;;;;4959486;29;20489;-93
2023/01/28 09:41:00;;;;;;;5.37;3.73;;;2.20;1.00;;;;;;4942201;29;20429;-96
2023/01/28 09:44:02;;;;;;;6.77;4.30;;;2.00;1.00;;;;;;4958311;29;20419;-91
2023/01/28 09:46:32;;;;;;;4.87;3.30;;;2.20;99.90;;;;;;4940463;29;20418;-94
2023/01/28 09:49:01;;;;;;;5.20;4.30;;;2.10;99.90;;;;;;4956214;29;20421;-92
2023/01/28 09:51:37;;;;;;;8.00;5.70;;;5.30;99.90;;;;;;4956926;28;20436;-93
2023/01/28 09:54:05;;;;;;;7.30;4.27;;;;;;;;;;4957296;28;20489;-95
2023/01/28 09:56:40;;;;;;;5.73;4.50;;;8.30;32.00;;;;;;4956896;28;20424;-85
2023/01/28 09:59:16;;;;;;;6.80;5.10;;;8.70;55.90;;;;;;4963322;28;20440;-87
2023/01/28 10:01:45;;;;;;;6.43;4.40;;;9.10;1.00;;;;;;4966735;28;20504;-93
2023/01/28 10:04:33;;;;;;;4.87;3.93;;;9.00;1.00;;;;;;4978562;28;20459;-91
2023/01/28 10:07:24;;;;;;;5.63;3.90;;;8.50;1.00;;;;;;4981875;28;20431;-81
2023/01/28 10:10:24;;;;;;;6.90;4.83;;;8.90;1.00;;;;;;4978162;28;20562;-90
2023/01/28 10:13:09;;;;;;;5.17;3.93;;;8.40;1.00;;;;;;4962367;28;20470;-93
2023/01/28 10:15:48;;;;;;;5.13;3.63;;;9.00;1.00;;;;;;4978838;28;20478;-93
2023/01/28 10:18:14;;;;;;;5.40;4.70;;;9.10;1.00;;;;;;4978955;28;20427;-89
2023/01/28 10:20:46;;;;;;;4.20;3.50;;;8.00;1.00;;;;;;4972615;28;20428;-82
2023/01/28 10:23:33;;;;;;;4.77;4.37;;;8.20;1.00;;;;;;4942059;29;20264;-79
2023/01/28 10:26:03;;;;;;;5.50;4.23;;;8.50;1.00;;;;;;4941258;29;20429;-81
2023/01/28 10:28:30;;;;;;;5.97;3.67;;;7.60;1.00;;;;;;4941264;29;20442;-89
2023/01/28 10:30:55;;;;;;;3.13;2.80;;;8.30;1.00;;;;;;4947538;29;20467;-91
2023/01/28 10:33:26;;;;;;;6.00;3.90;;;8.20;1.00;;;;;;4957775;28;20507;-80
2023/01/28 10:35:59;;;;;;;4.00;3.37;;;;;;;;;;4958971;29;20179;-79
2023/01/28 10:38:30;;;;;;;5.20;3.63;;;8.50;1.00;;;;;;4961686;29;20447;-79
2023/01/28 10:40:58;;;;;;;4.37;3.67;;;;;;;;;;4959464;29;20957;-84
2023/01/28 10:43:25;;;;;;;7.30;2.90;;;;;;;;;;4957242;29;20518;-80
2023/01/28 10:46:00;;;;;;;3.77;3.47;;;8.90;1.00;;;;;;4959764;28;20405;-91
2023/01/28 10:48:31;;;;;;;4.77;3.90;;;9.30;1.00;;;;;;4979062;28;20449;-90
2023/01/28 10:51:01;;;;;;;4.83;3.33;;;10.20;99.90;;;;;;4977481;28;20986;-90
2023/01/28 10:53:56;;;;;;;4.00;3.40;;;10.20;99.90;;;;;;4977837;28;20549;-88
2023/01/28 10:56:27;;;;;;;3.60;3.30;;;9.60;99.90;;;;;;4962434;28;20424;-81
2023/01/28 10:59:04;;;;;;;4.87;3.93;;;9.40;99.90;;;;;;4977736;28;20845;-80
2023/01/28 11:01:42;;;;;;;3.57;3.33;;;8.60;99.90;;;;;;4978198;28;20409;-81
2023/01/28 11:04:25;;;;;;;3.53;3.13;;;7.40;99.90;;;;;;4977077;28;20530;-90
2023/01/28 11:06:53;;;;;;;4.43;2.90;;;7.30;99.90;;;;;;4977211;28;20473;-82
2023/01/28 11:09:34;;;;;;;9.93;3.90;;;6.40;99.90;;;;;;4960578;28;20483;-90
2023/01/28 11:12:11;;;;;;;4.93;3.00;;;8.40;99.90;;;;;;4969272;28;20417;-88
2023/01/28 11:14:37;;;;;;;4.03;3.10;;;9.40;99.90;;;;;;4977064;28;20473;-81
2023/01/28 11:17:02;;;;;;;3.70;3.40;;;10.00;99.90;;;;;;4960041;28;20859;-88
2023/01/28 11:19:34;;;;;;;4.07;3.70;;;10.50;99.90;;;;;;4976753;28;20545;-84
2023/01/28 11:22:00;;;;;;;5.50;3.60;;;9.60;99.90;;;;;;4976962;28;20273;-79
2023/01/28 11:24:29;;;;;;;6.00;3.80;;;9.60;99.90;;;;;;4977098;28;20721;-78
2023/01/28 11:26:57;;;;;;;3.97;2.90;;;10.30;99.90;;;;;;4976625;28;20422;-81
2023/01/28 11:29:24;;;;;;;3.40;3.10;;;10.40;99.90;;;;;;4977037;28;20422;-88
2023/01/28 11:31:52;;;;;;;4.40;2.83;;;9.30;99.90;;;;;;4976970;28;20659;-90
2023/01/28 11:34:19;;;;;;;2.93;2.63;;;9.20;99.90;;;;;;4980233;28;20482;-88
2023/01/28 11:36:53;;;;;;;3.00;2.53;;;7.80;99.90;;;;;;4977770;28;20501;-85
2023/01/28 11:39:27;;;;;;;3.90;3.60;;;7.60;99.90;;;;;;4976727;28;20433;-86
2023/01/28 11:42:09;;;;;;;3.63;2.67;;;8.00;99.90;;;;;;4976643;28;20414;-80
2023/01/28 11:44:35;;;;;;;5.33;2.50;;;7.40;99.90;;;;;;4975993;28;20391;-88
2023/01/28 11:47:10;;;;;;;4.30;3.43;;;8.60;99.90;;;;;;4959164;28;20455;-86
2023/01/28 11:49:54;;;;;;;5.13;3.30;;;9.00;99.90;;;;;;4976482;28;20181;-85
2023/01/28 11:52:47;;;;;;;3.20;2.70;;;9.10;99.90;;;;;;4976127;28;20429;-79
2023/01/28 11:55:33;;;;;;;4.57;2.90;;;10.30;99.90;;;;;;4952554;28;20439;-85
2023/01/28 11:58:30;;;;;;;3.30;2.30;;;10.50;99.90;;;;;;4947468;29;20420;-82
2023/01/28 12:01:07;;;;;;;4.23;3.10;;;10.60;99.90;;;;;;4947839;29;20442;-90
2023/01/28 12:03:42;;;;;;;3.43;3.00;;;10.40;99.90;;;;;;4947323;29;20425;-83
2023/01/28 12:06:45;;;;;;;8.83;3.57;;;11.40;99.90;;;;;;4946499;29;20768;-87
2023/01/28 12:09:45;;;;;;;3.23;2.60;;;8.10;99.90;;;;;;4946492;29;20417;-78
2023/01/28 12:12:37;;;;;;;4.77;2.50;;;7.00;99.90;;;;;;4946580;29;20425;-91
2023/01/28 12:15:37;;;;;;;4.40;2.50;;;6.70;99.90;;;;;;4945044;29;20423;-78
2023/01/28 12:18:19;;;;;;;2.47;2.27;;;8.90;99.90;;;;;;4945665;29;20506;-87
2023/01/28 12:21:07;;;;;;;5.13;2.70;;;10.80;99.90;;;;;;4945399;29;20497;-86
2023/01/28 12:23:36;;;;;;;4.23;2.10;;;11.20;99.90;;;;;;4946520;29;20403;-88
2023/01/28 12:26:34;;;;;;;4.23;2.30;;;11.20;99.90;;;;;;4944595;29;20420;-90
2023/01/28 12:29:39;;;;;;;5.60;3.70;;;11.50;99.90;;;;;;4947001;29;20513;-80
2023/01/28 12:32:30;;;;;;;3.67;3.00;;;11.50;99.90;;;;;;4922250;29;20929;-82
2023/01/28 12:35:20;;;;;;;3.70;2.77;;;11.60;99.90;;;;;;4947139;29;20772;-89
2023/01/28 12:38:03;;;;;;;8.17;3.07;;;10.80;99.90;;;;;;4945768;29;20933;-92
2023/01/28 12:41:06;;;;;;;3.07;2.13;;;10.60;99.90;;;;;;4946493;29;20821;-78
2023/01/28 12:43:53;;;;;;;4.10;2.03;;;11.60;99.90;;;;;;4947504;28;20776;-88
2023/01/28 12:46:44;;;;;;;4.33;2.80;;;11.20;99.90;;;;;;4947128;29;20412;-85
2023/01/28 12:49:22;;;;;;;5.23;3.30;;;9.50;99.90;;;;;;4946454;29;20858;-88
2023/01/28 12:52:12;;;;;;;3.90;2.87;;;10.30;99.90;;;;;;4943982;29;20927;-82
2023/01/28 12:54:57;;;;;;;4.50;3.40;;;;;;;;;;4958679;28;20896;-91
2023/01/28 12:57:24;;;;;;;5.77;3.50;;;;;;;;;;4935764;29;20786;-92
2023/01/28 13:00:07;;;;;;;5.47;3.27;;;;;;;;;;4936984;29;20424;-90
2023/01/28 13:02:37;;;;;;;5.47;3.00;;;;;;;;;;4937405;29;20914;-81
2023/01/28 13:05:17;;;;;;;3.33;3.00;;;8.20;99.90;;;;;;4944565;29;20432;-88
2023/01/28 13:07:51;;;;;;;3.30;3.00;;;7.80;99.90;;;;;;4929440;29;20432;-94
2023/01/28 13:10:37;;;;;;;5.03;2.70;;;7.80;99.90;;;;;;4946197;29;20504;-87
2023/01/28 13:13:05;;;;;;;5.17;3.10;;;8.10;99.90;;;;;;4943036;29;20493;-91
2023/01/28 13:15:31;;;;;;;3.80;3.03;;;7.90;99.90;;;;;;4961397;28;20433;-84
2023/01/28 13:18:02;;;;;;;4.70;3.53;;;7.40;99.90;;;;;;4945889;29;20925;-90
2023/01/28 13:20:49;;;;;;;4.60;2.67;;;7.10;99.90;;;;;;4943843;29;20425;-84
2023/01/28 13:23:36;;;;;;;6.20;3.37;;;7.10;99.90;;;;;;4945674;29;20426;-91
2023/01/28 13:26:16;;;;;;;6.63;3.07;;;6.90;99.90;;;;;;4947773;29;20431;-87
2023/01/28 13:28:42;;;;;;;5.17;3.77;;;6.60;99.90;;;;;;4946271;29;20426;-92
2023/01/28 13:31:16;;;;;;;6.47;3.87;;;6.40;99.90;;;;;;4946235;29;20426;-80
2023/01/28 13:33:46;;;;;;;3.70;3.30;;;5.80;99.90;;;;;;4937385;29;20205;-82
2023/01/28 13:36:47;;;;;;;6.67;2.97;;;5.60;99.90;;;;;;4943010;29;20419;-83
2023/01/28 13:39:15;;;;;;;3.40;3.10;;;5.40;99.90;;;;;;4886094;29;20448;-93
2023/01/28 13:41:47;;;;;;;6.07;4.10;;;5.50;99.90;;;;;;4952016;28;20424;-86
2023/01/28 13:44:24;;;;;;;4.93;3.50;;;5.40;99.90;;;;;;4948357;29;20412;-87
2023/01/28 13:46:56;;;;;;;5.47;3.90;;;5.50;99.90;;;;;;4948125;29;20424;-81
2023/01/28 13:50:00;;;;;;;5.50;3.40;;;5.50;99.90;;;;;;4946990;29;20419;-84
2023/01/28 13:52:32;;;;;;;7.50;4.10;;;5.40;99.90;;;;;;4950304;29;20964;-92
2023/01/28 13:55:00;;;;;;;4.97;3.40;;;5.50;99.90;;;;;;4950157;29;20925;-92
2023/01/28 13:57:41;;;;;;;6.40;3.63;;;5.50;99.90;;;;;;4948578;29;20416;-80
2023/01/28 14:00:29;;;;;;;6.57;4.17;;;5.40;99.90;;;;;;4961363;29;20434;-90
2023/01/28 14:03:22;;;;;;;6.27;3.80;;;5.30;1.00;;;;;;4960306;29;20410;-92
2023/01/28 14:06:01;;;;;;;7.77;5.17;;;5.40;1.00;;;;;;4959576;29;20416;-91
2023/01/28 14:08:57;;;;;;;6.77;4.53;;;5.50;1.00;;;;;;4959706;29;20407;-82
2023/01/28 14:11:44;;;;;;;6.72;5.70;;;5.40;1.00;;;;;;4959055;29;20412;-82
2023/01/28 14:14:28;;;;;;;8.67;4.63;;;5.50;1.00;;;;;;4959145;29;20213;-79
2023/01/28 14:17:03;;;;;;;7.03;4.53;;;5.40;1.00;;;;;;4959284;29;20408;-90
2023/01/28 14:19:39;;;;;;;7.60;4.17;;;5.30;1.00;;;;;;4959240;29;20478;-93
2023/01/28 14:22:23;;;;;;;7.23;4.70;;;5.30;1.00;;;;;;4959810;29;20416;-92